Ossian, Indiana
Current Conditions -  °F | °C
As of 2:54 AM on Wednesday 22 Oct 2014 (Local Time) from KFWA Reporting Station
Few Clouds Few Clouds  
Wind Chill: 34°   Ceiling: Unl
Heat Index: 39°   Visibility: 10mi
Dew Point: 35°   Wind: 7mph
Humidity: 86%   Direction: 340°NNW
Pressure: 30.24"   Gusts: NA
Location:  40.88°N, 85.17°W
Report Text: KFWA 220654Z 34006KT 10SM FEW048 04/02 A3024 RMK AO2 SLP244 T00390017
Loading
Personal Weather Stations






























Interactive Weather Map
Tropical Storm Tracking
New forecast layout! Learn more

10-Day Weather Forecast

Advertisements
Track Severe Weather on mobile